Time;durP1;ratioP1;P1;durP2;ratioP2;P2;SDS_P1;SDS_P2;PMS_P1;PMS_P2;Temp;Humidity;BMP_temperature;BMP_pressure;BME280_temperature;BME280_humidity;BME280_pressure;Samples;Min_cycle;Max_cycle;Signal;HPM_P1;HPM_P2
2023/09/29 00:01:32;;;;;;;13.02;7.10;;;;;;;11.88;100.00;98718.72;2414872;30;20099;-96
2023/09/29 00:04:10;;;;;;;9.35;6.72;;;;;;;11.83;100.00;98724.09;2438903;30;20042;-96
2023/09/29 00:06:32;;;;;;;9.98;6.18;;;;;;;11.82;100.00;98711.03;2433176;30;20041;-96
2023/09/29 00:08:39;;;;;;;10.85;6.78;;;;;;;11.79;100.00;98721.59;2433113;30;20092;-96
2023/09/29 00:10:58;;;;;;;9.38;7.00;;;;;;;11.71;100.00;98721.81;2440927;30;20082;-95
2023/09/29 00:13:19;;;;;;;9.73;6.72;;;;;;;11.68;100.00;98720.13;2429983;30;20101;-90
2023/09/29 00:15:21;;;;;;;9.70;6.43;;;;;;;11.66;100.00;98723.69;2455596;30;20129;-96
2023/09/29 00:16:40;;;;;;;9.90;6.70;;;;;;;11.63;100.00;98723.78;2451820;30;20052;-96
2023/09/29 00:18:18;;;;;;;9.98;6.78;;;;;;;11.58;100.00;98716.03;2434432;30;20080;-95
2023/09/29 00:19:41;;;;;;;8.77;6.55;;;;;;;11.53;100.00;98725.81;2451571;30;20072;-96
2023/09/29 00:21:12;;;;;;;10.98;6.72;;;;;;;11.54;100.00;98724.91;2448774;30;20187;-96
2023/09/29 00:22:43;;;;;;;11.25;6.93;;;;;;;11.44;100.00;98721.69;2455969;30;20045;-90
2023/09/29 00:24:21;;;;;;;12.20;6.85;;;;;;;11.40;100.00;98714.81;2451274;30;20052;-93
2023/09/29 00:26:43;;;;;;;10.43;6.95;;;;;;;11.34;100.00;98718.47;2465697;30;20031;-91
2023/09/29 00:28:24;;;;;;;10.68;7.15;;;;;;;11.29;100.00;98720.31;2486109;29;20047;-94
2023/09/29 00:30:32;;;;;;;13.98;6.95;;;;;;;11.37;100.00;98721.00;2479388;30;20059;-96
2023/09/29 00:32:11;;;;;;;11.32;7.13;;;;;;;11.41;100.00;98720.00;2476746;29;20134;-86
2023/09/29 00:33:43;;;;;;;9.93;6.65;;;;;;;11.42;100.00;98713.00;2487214;29;20047;-91
2023/09/29 00:35:38;;;;;;;11.13;7.13;;;;;;;11.42;100.00;98719.09;2490654;29;20054;-90
2023/09/29 00:37:11;;;;;;;13.18;6.28;;;;;;;11.41;100.00;98712.13;2492295;29;20104;-96
2023/09/29 00:38:53;;;;;;;;;;;;;;;11.33;100.00;98714.13;2477380;30;20115;-96
2023/09/29 00:40:25;;;;;;;10.15;6.90;;;;;;;11.39;100.00;98716.56;2493318;29;19925;-96
2023/09/29 00:41:46;;;;;;;10.82;6.68;;;;;;;11.41;100.00;98712.13;2492294;29;20159;-96
2023/09/29 00:43:03;;;;;;;8.93;6.18;;;;;;;11.42;100.00;98713.00;2523400;29;20091;-96
2023/09/29 00:44:20;;;;;;;10.63;6.88;;;;;;;11.41;100.00;98721.78;2524618;29;20057;-96
2023/09/29 00:45:37;;;;;;;11.05;6.43;;;;;;;11.41;100.00;98722.63;2515693;29;20501;-96
2023/09/29 00:46:54;;;;;;;10.07;7.10;;;;;;;11.42;100.00;98718.25;2519108;29;20120;-96
2023/09/29 00:48:13;;;;;;;10.23;6.82;;;;;;;11.41;100.00;98717.38;2525334;29;20047;-96
2023/09/29 00:49:35;;;;;;;10.40;6.65;;;;;;;11.38;100.00;98716.59;2517684;29;20565;-96
2023/09/29 00:50:51;;;;;;;9.32;6.95;;;;;;;11.38;100.00;98722.72;2521326;29;20057;-96
2023/09/29 00:52:07;;;;;;;10.95;7.43;;;;;;;11.38;100.00;98720.09;2520566;29;20049;-96
2023/09/29 00:53:23;;;;;;;9.80;7.05;;;;;;;11.37;100.00;98722.75;2520665;29;20072;-96
2023/09/29 00:54:45;;;;;;;9.98;7.22;;;;;;;11.34;100.00;98721.06;2519269;29;20059;-96
2023/09/29 00:56:02;;;;;;;13.93;7.35;;;;;;;11.33;100.00;98714.13;2519529;29;20053;-96
2023/09/29 00:57:21;;;;;;;10.27;6.72;;;;;;;11.30;100.00;98719.41;2511094;29;20079;-93
2023/09/29 00:58:42;;;;;;;9.80;6.85;;;;;;;11.30;100.00;98722.03;2514643;29;20093;-95
2023/09/29 01:01:54;;;;;;;10.45;7.05;;;;;;;11.32;100.00;98717.63;2522866;29;20056;-96
2023/09/29 01:03:15;;;;;;;11.07;6.78;;;;;;;11.30;100.00;98714.16;2520546;29;20095;-96
2023/09/29 01:04:32;;;;;;;9.07;6.80;;;;;;;11.30;100.00;98711.56;2520841;29;20049;-96
2023/09/29 01:05:51;;;;;;;11.82;6.82;;;;;;;11.26;100.00;98713.41;2522780;29;20067;-96
2023/09/29 01:07:09;;;;;;;9.60;6.63;;;;;;;11.19;100.00;98708.38;2522635;29;20049;-96
2023/09/29 01:08:26;;;;;;;11.60;7.22;;;;;;;11.07;100.00;98713.03;2515330;29;20049;-96
2023/09/29 01:09:43;;;;;;;9.32;6.25;;;;;;;10.99;100.00;98713.22;2518517;29;20381;-96
2023/09/29 01:10:59;;;;;;;11.73;6.97;;;;;;;11.04;100.00;98707.88;2516424;29;20060;-96
2023/09/29 01:12:27;;;;;;;10.73;6.85;;;;;;;10.95;100.00;98714.19;2523875;29;20041;-96
2023/09/29 01:13:43;;;;;;;13.27;7.15;;;;;;;10.95;100.00;98705.47;2526068;29;20059;-96
2023/09/29 01:14:59;;;;;;;9.95;6.70;;;;;;;10.88;100.00;98708.25;2523572;29;20079;-96
2023/09/29 01:16:16;;;;;;;12.18;7.43;;;;;;;10.83;100.00;98704.88;2521849;29;20124;-96
2023/09/29 01:17:32;;;;;;;9.32;7.07;;;;;;;10.80;100.00;98710.22;2527103;29;20055;-96
2023/09/29 01:18:49;;;;;;;13.90;8.15;;;;;;;10.74;100.00;98708.59;2522720;29;20049;-96
2023/09/29 01:20:16;;;;;;;12.43;7.53;;;;;;;10.70;100.00;98711.31;2519669;29;20055;-96
2023/09/29 01:21:32;;;;;;;10.68;7.43;;;;;;;10.67;100.00;98706.16;2527667;29;20132;-95
2023/09/29 01:22:48;;;;;;;12.95;7.75;;;;;;;10.66;100.00;98707.06;2533868;29;20052;-96
2023/09/29 01:24:07;;;;;;;12.63;7.03;;;;;;;10.67;100.00;98708.78;2526697;29;20089;-96
2023/09/29 01:25:29;;;;;;;10.23;6.93;;;;;;;10.64;100.00;98714.09;2534716;29;20047;-96
2023/09/29 01:26:45;;;;;;;12.55;7.50;;;;;;;10.61;100.00;98712.41;2528725;29;20068;-96
2023/09/29 01:28:05;;;;;;;11.27;7.75;;;;;;;10.71;100.00;98715.66;2527121;29;20147;-96
2023/09/29 01:29:20;;;;;;;10.27;6.45;;;;;;;10.77;100.00;98717.28;2537618;29;20049;-96
2023/09/29 01:30:42;;;;;;;10.93;7.38;;;;;;;10.81;100.00;98713.66;2528587;29;20057;-96
2023/09/29 01:32:01;;;;;;;10.40;7.25;;;;;;;10.81;100.00;98711.06;2533283;29;20051;-96
2023/09/29 01:33:18;;;;;;;11.07;6.95;;;;;;;10.84;100.00;98711.84;2517804;29;20055;-96
2023/09/29 01:34:49;;;;;;;11.07;6.93;;;;;;;10.80;100.00;98712.81;2527647;29;20036;-96
2023/09/29 01:36:24;;;;;;;10.20;7.28;;;;;;;10.84;100.00;98716.25;2533324;29;20048;-96
2023/09/29 01:38:00;;;;;;;11.07;7.13;;;;;;;10.84;100.00;98717.09;2534610;29;20056;-96
2023/09/29 01:39:17;;;;;;;10.00;6.82;;;;;;;10.83;100.00;98715.38;2519656;29;20064;-96
2023/09/29 01:40:36;;;;;;;9.55;7.15;;;;;;;10.84;100.00;98714.47;2511750;29;20426;-96
2023/09/29 01:41:52;;;;;;;10.00;6.50;;;;;;;10.83;100.00;98707.50;2513384;29;20182;-96
2023/09/29 01:43:10;;;;;;;9.90;7.32;;;;;;;10.81;100.00;98711.94;2519692;29;20061;-96
2023/09/29 01:44:29;;;;;;;12.82;7.20;;;;;;;10.82;100.00;98711.03;2514773;29;20091;-96
2023/09/29 01:45:45;;;;;;;8.93;6.82;;;;;;;10.83;100.00;98707.50;2520923;29;20052;-96
2023/09/29 01:47:03;;;;;;;10.15;6.60;;;;;;;10.83;100.00;98711.91;2518500;29;20085;-96
2023/09/29 01:48:19;;;;;;;11.25;7.10;;;;;;;10.84;100.00;98713.63;2525632;29;20033;-96
2023/09/29 01:49:36;;;;;;;9.65;6.90;;;;;;;10.82;100.00;98718.88;2534609;29;20148;-96
2023/09/29 01:50:54;;;;;;;11.27;7.13;;;;;;;10.78;100.00;98717.25;2542626;29;20048;-96
2023/09/29 01:52:15;;;;;;;10.27;6.93;;;;;;;10.78;100.00;98716.38;2523918;29;20073;-96
2023/09/29 01:53:37;;;;;;;9.25;6.57;;;;;;;10.76;100.00;98721.66;2535667;29;20240;-96
2023/09/29 01:54:55;;;;;;;9.95;6.63;;;;;;;10.77;100.00;98726.00;2532388;29;20214;-96
2023/09/29 01:56:21;;;;;;;9.68;6.80;;;;;;;10.73;100.00;98716.47;2529500;29;20066;-96
2023/09/29 01:57:57;;;;;;;11.18;6.82;;;;;;;10.68;100.00;98726.22;2525519;29;20056;-96
2023/09/29 01:59:18;;;;;;;8.77;6.40;;;;;;;10.63;100.00;98722.84;2537113;29;20059;-96
2023/09/29 02:00:38;;;;;;;8.95;6.93;;;;;;;10.59;100.00;98722.91;2537260;29;20063;-96
2023/09/29 02:01:56;;;;;;;8.60;6.53;;;;;;;10.63;100.00;98722.84;2525155;29;20430;-96
2023/09/29 02:03:12;;;;;;;9.68;6.70;;;;;;;10.61;100.00;98720.25;2518562;29;20075;-96
2023/09/29 02:04:31;;;;;;;10.65;6.43;;;;;;;10.63;100.00;98715.00;2524675;29;20086;-96
2023/09/29 02:05:48;;;;;;;9.32;6.20;;;;;;;10.64;100.00;98722.81;2520956;29;20071;-96
2023/09/29 02:07:09;;;;;;;9.27;6.53;;;;;;;10.57;100.00;98711.59;2518958;29;20079;-96
2023/09/29 02:08:25;;;;;;;9.95;6.53;;;;;;;10.56;100.00;98719.53;2516851;29;20061;-94
2023/09/29 02:09:43;;;;;;;10.20;6.85;;;;;;;10.56;100.00;98722.13;2521419;29;20041;-96
2023/09/29 02:11:00;;;;;;;10.75;7.00;;;;;;;10.60;100.00;98719.38;2521514;29;20052;-96
2023/09/29 02:12:17;;;;;;;9.52;7.05;;;;;;;10.59;100.00;98720.28;2533710;29;20040;-96
2023/09/29 02:13:38;;;;;;;8.98;6.35;;;;;;;10.59;100.00;98722.06;2531166;29;20426;-96
2023/09/29 02:15:08;;;;;;;10.43;6.95;;;;;;;10.56;100.00;98717.75;2520747;29;20137;-96
2023/09/29 02:16:25;;;;;;;10.85;7.07;;;;;;;10.55;100.00;98715.19;2514328;29;20049;-96
2023/09/29 02:17:41;;;;;;;9.23;6.90;;;;;;;10.57;100.00;98714.22;2521019;29;20457;-95
2023/09/29 02:18:57;;;;;;;9.48;6.75;;;;;;;10.56;100.00;98712.50;2521650;29;20153;-96
2023/09/29 02:20:20;;;;;;;10.45;7.00;;;;;;;10.53;100.00;98709.09;2523048;29;20049;-96
2023/09/29 02:21:42;;;;;;;10.15;6.47;;;;;;;10.50;100.00;98706.56;2516724;29;20055;-91
2023/09/29 02:23:05;;;;;;;10.57;6.80;;;;;;;10.47;100.00;98710.09;2520067;29;20056;-96
2023/09/29 02:24:33;;;;;;;10.70;7.10;;;;;;;10.47;100.00;98709.25;2527952;29;20069;-96
2023/09/29 02:26:03;;;;;;;10.65;7.35;;;;;;;10.43;100.00;98714.56;2510315;29;20061;-96
2023/09/29 02:27:25;;;;;;;9.55;6.50;;;;;;;10.43;100.00;98716.31;2522145;29;20065;-96
2023/09/29 02:29:09;;;;;;;11.55;7.35;;;;;;;10.43;100.00;98709.34;2537321;29;20059;-96
2023/09/29 02:30:42;;;;;;;11.60;6.65;;;;;;;10.40;100.00;98711.97;2533266;29;20056;-96
2023/09/29 02:32:34;;;;;;;8.85;6.65;;;;;;;10.32;100.00;98716.53;2531586;29;20072;-96
2023/09/29 02:33:52;;;;;;;10.90;6.97;;;;;;;10.35;100.00;98713.84;2518303;29;20052;-96
2023/09/29 02:35:25;;;;;;;11.45;7.50;;;;;;;10.33;100.00;98713.00;2526764;29;20061;-96
2023/09/29 02:36:59;;;;;;;10.23;6.88;;;;;;;10.26;100.00;98706.19;2533548;29;20056;-96
2023/09/29 02:38:39;;;;;;;10.23;6.63;;;;;;;10.28;100.00;98713.13;2540623;29;20473;-96
2023/09/29 02:40:42;;;;;;;10.98;7.00;;;;;;;10.28;100.00;98707.88;2542368;29;20056;-96
2023/09/29 02:42:18;;;;;;;10.57;7.30;;;;;;;10.24;100.00;98710.59;2539142;29;20531;-96
2023/09/29 02:43:37;;;;;;;10.43;7.13;;;;;;;10.24;100.00;98716.69;2523700;29;20057;-96
2023/09/29 02:44:53;;;;;;;11.43;8.00;;;;;;;10.22;100.00;98708.03;2521049;29;20059;-96
2023/09/29 02:46:16;;;;;;;10.38;7.35;;;;;;;10.25;100.00;98701.84;2524302;29;20540;-96
2023/09/29 02:47:32;;;;;;;10.93;7.35;;;;;;;10.29;100.00;98701.75;2522916;29;20076;-96
2023/09/29 02:48:50;;;;;;;11.63;7.22;;;;;;;10.31;100.00;98706.97;2534222;29;20044;-96
2023/09/29 02:50:18;;;;;;;12.00;7.72;;;;;;;10.34;100.00;98706.00;2530910;29;20491;-96
2023/09/29 02:51:41;;;;;;;9.23;7.07;;;;;;;10.31;100.00;98705.19;2531449;29;20056;-96
2023/09/29 02:53:05;;;;;;;9.25;6.60;;;;;;;10.29;100.00;98701.75;2517030;29;20404;-96
2023/09/29 02:54:23;;;;;;;12.15;7.38;;;;;;;10.28;100.00;98701.81;2515371;29;20093;-96
2023/09/29 02:55:59;;;;;;;10.15;6.40;;;;;;;10.26;100.00;98699.22;2533568;29;20052;-96
2023/09/29 02:57:22;;;;;;;11.65;7.80;;;;;;;10.25;100.00;98705.34;2532378;29;20337;-96
2023/09/29 02:58:41;;;;;;;11.35;7.55;;;;;;;10.25;100.00;98707.97;2524623;29;20039;-96
2023/09/29 03:00:18;;;;;;;10.32;6.90;;;;;;;10.25;100.00;98705.34;2527387;29;20057;-96
2023/09/29 03:01:37;;;;;;;9.40;7.07;;;;;;;10.28;100.00;98705.25;2521841;29;20049;-96
2023/09/29 03:02:57;;;;;;;10.52;6.65;;;;;;;10.32;100.00;98706.06;2514419;29;20082;-96
2023/09/29 03:04:32;;;;;;;11.77;6.38;;;;;;;10.42;100.00;98705.00;2517847;29;20081;-96
2023/09/29 03:06:08;;;;;;;10.73;6.68;;;;;;;10.44;100.00;98708.44;2527268;29;20044;-96
2023/09/29 03:07:55;;;;;;;11.45;7.15;;;;;;;10.37;100.00;98711.19;2533904;29;20049;-96
2023/09/29 03:09:18;;;;;;;9.10;6.50;;;;;;;10.26;100.00;98708.81;2532646;29;20107;-96
2023/09/29 03:10:41;;;;;;;10.07;6.68;;;;;;;10.19;100.00;98713.31;2518625;29;20560;-96
2023/09/29 03:12:08;;;;;;;13.38;7.38;;;;;;;10.17;100.00;98713.34;2527996;29;20063;-96
2023/09/29 03:13:40;;;;;;;9.88;6.80;;;;;;;10.15;100.00;98711.66;2540109;29;20067;-96
2023/09/29 03:15:17;;;;;;;11.38;6.95;;;;;;;10.15;100.00;98716.91;2541671;29;20052;-96
2023/09/29 03:16:41;;;;;;;11.32;7.45;;;;;;;10.17;100.00;98709.88;2529862;29;20088;-96
2023/09/29 03:18:19;;;;;;;12.80;7.50;;;;;;;10.15;100.00;98712.53;2541059;29;20128;-96
2023/09/29 03:19:53;;;;;;;11.13;6.80;;;;;;;10.11;100.00;98716.09;2529451;29;20037;-96
2023/09/29 03:21:15;;;;;;;8.88;6.35;;;;;;;10.11;100.00;98717.88;2527067;29;20041;-96
2023/09/29 03:22:32;;;;;;;10.30;6.72;;;;;;;10.08;100.00;98715.31;2520854;29;20124;-96
2023/09/29 03:23:48;;;;;;;12.60;7.60;;;;;;;10.02;100.00;98718.94;2523615;29;20321;-96
2023/09/29 03:25:05;;;;;;;13.73;6.70;;;;;;;10.04;100.00;98712.75;2515039;29;20052;-96
2023/09/29 03:26:22;;;;;;;10.77;7.03;;;;;;;10.08;100.00;98712.72;2519332;29;20057;-96
2023/09/29 03:27:39;;;;;;;10.82;7.53;;;;;;;10.08;100.00;98716.16;2532433;29;20048;-96
2023/09/29 03:28:55;;;;;;;9.63;6.78;;;;;;;10.03;100.00;98712.81;2527886;29;20091;-96
2023/09/29 03:30:11;;;;;;;13.43;7.38;;;;;;;9.94;100.00;98719.09;2524778;29;20073;-96
2023/09/29 03:31:27;;;;;;;10.90;6.80;;;;;;;9.92;100.00;98717.38;2512483;29;20049;-96
2023/09/29 03:32:44;;;;;;;10.88;7.22;;;;;;;9.89;100.00;98711.34;2518848;29;20057;-96
2023/09/29 03:34:01;;;;;;;9.48;6.82;;;;;;;9.92;100.00;98704.31;2519877;29;20518;-96
2023/09/29 03:35:17;;;;;;;10.20;7.22;;;;;;;9.94;100.00;98708.63;2524694;29;20117;-96
2023/09/29 03:36:40;;;;;;;9.73;6.93;;;;;;;9.93;100.00;98706.91;2524664;29;20139;-96
2023/09/29 03:37:57;;;;;;;11.32;7.50;;;;;;;9.89;100.00;98707.84;2524447;29;20056;-96
2023/09/29 03:39:14;;;;;;;10.90;7.18;;;;;;;9.88;100.00;98711.34;2526011;29;20072;-96
2023/09/29 03:40:31;;;;;;;12.60;7.43;;;;;;;9.82;100.00;98712.34;2513243;29;20068;-96
2023/09/29 03:41:48;;;;;;;9.90;7.28;;;;;;;9.84;100.00;98707.09;2514831;29;20439;-96
2023/09/29 03:43:06;;;;;;;9.95;6.90;;;;;;;9.89;100.00;98710.47;2520858;29;20136;-96
2023/09/29 03:44:24;;;;;;;9.85;6.93;;;;;;;9.92;100.00;98712.16;2514526;29;20054;-96
2023/09/29 03:45:43;;;;;;;12.77;7.65;;;;;;;9.89;100.00;98716.56;2520299;29;20055;-96
2023/09/29 03:47:01;;;;;;;10.13;6.97;;;;;;;9.90;100.00;98720.03;2527077;29;20060;-96
2023/09/29 03:48:17;;;;;;;11.25;7.35;;;;;;;9.90;100.00;98730.50;2521688;29;20068;-96
2023/09/29 03:49:38;;;;;;;11.38;6.82;;;;;;;9.91;100.00;98723.53;2520895;29;20080;-96
2023/09/29 03:50:54;;;;;;;10.90;7.15;;;;;;;9.91;100.00;98719.13;2524187;29;20079;-96
2023/09/29 03:52:10;;;;;;;13.18;7.60;;;;;;;9.89;100.00;98723.53;2530994;29;20101;-96
2023/09/29 03:53:28;;;;;;;8.85;6.30;;;;;;;9.85;100.00;98724.50;2528900;29;20502;-96
2023/09/29 03:54:44;;;;;;;10.13;6.70;;;;;;;9.82;100.00;98721.97;2531111;29;20556;-96
2023/09/29 03:56:00;;;;;;;9.52;6.80;;;;;;;9.79;100.00;98716.78;2537615;29;20044;-96
2023/09/29 03:57:16;;;;;;;10.25;7.55;;;;;;;9.77;100.00;98722.03;2528908;29;20049;-96
2023/09/29 03:58:32;;;;;;;11.20;6.75;;;;;;;9.79;100.00;98716.78;2511126;29;20062;-96
2023/09/29 03:59:48;;;;;;;8.52;6.47;;;;;;;9.77;100.00;98721.16;2523311;29;20060;-96
2023/09/29 04:01:03;;;;;;;11.45;7.38;;;;;;;9.71;100.00;98723.03;2520860;29;20063;-96
2023/09/29 04:02:20;;;;;;;11.27;7.25;;;;;;;9.71;100.00;98722.19;2520396;29;20565;-96
2023/09/29 04:03:36;;;;;;;11.40;7.35;;;;;;;9.62;100.00;98723.19;2520302;29;20485;-96
2023/09/29 04:04:52;;;;;;;13.02;7.72;;;;;;;9.56;100.00;98718.09;2521059;29;20156;-96
2023/09/29 04:06:09;;;;;;;9.57;7.07;;;;;;;9.57;100.00;98719.81;2521708;29;20080;-96
2023/09/29 04:07:25;;;;;;;10.27;6.90;;;;;;;9.55;100.00;98716.38;2521676;29;20052;-96
2023/09/29 04:08:41;;;;;;;10.23;7.15;;;;;;;9.49;100.00;98714.75;2523790;29;20088;-96
2023/09/29 04:10:01;;;;;;;11.57;7.43;;;;;;;9.52;100.00;98712.06;2529188;29;20059;-96
2023/09/29 04:11:24;;;;;;;10.93;7.65;;;;;;;9.44;100.00;98714.81;2521174;29;20065;-96
2023/09/29 04:13:00;;;;;;;11.13;7.32;;;;;;;9.49;100.00;98714.75;2529436;29;20126;-96
2023/09/29 04:14:19;;;;;;;10.63;7.28;;;;;;;9.50;100.00;98710.38;2531085;29;20053;-96
2023/09/29 04:15:37;;;;;;;12.20;7.72;;;;;;;9.49;100.00;98721.72;2525206;29;20076;-96
2023/09/29 04:16:54;;;;;;;12.00;7.53;;;;;;;9.49;100.00;98719.97;2518778;29;20136;-96
2023/09/29 04:18:11;;;;;;;14.60;8.40;;;;;;;9.48;100.00;98715.63;2528307;29;20051;-96
2023/09/29 04:19:27;;;;;;;12.25;7.65;;;;;;;9.50;100.00;98712.97;2530729;29;20059;-96
2023/09/29 04:20:43;;;;;;;12.20;7.95;;;;;;;9.54;100.00;98706.81;2527585;29;20104;-96
2023/09/29 04:22:00;;;;;;;13.02;7.93;;;;;;;9.56;100.00;98713.72;2532723;29;20096;-95
2023/09/29 04:23:16;;;;;;;11.75;7.82;;;;;;;9.60;100.00;98714.53;2529761;29;20396;-96
2023/09/29 04:24:33;;;;;;;11.27;7.03;;;;;;;9.66;100.00;98711.81;2523181;29;20065;-96
2023/09/29 04:25:49;;;;;;;12.30;7.63;;;;;;;9.75;100.00;98718.59;2528992;29;20047;-96
2023/09/29 04:27:07;;;;;;;13.55;9.27;;;;;;;9.76;100.00;98715.09;2512407;29;20088;-95
2023/09/29 04:28:23;;;;;;;13.15;8.63;;;;;;;9.75;100.00;98723.84;2518705;29;20184;-96
2023/09/29 04:29:39;;;;;;;12.70;8.10;;;;;;;9.88;100.00;98719.19;2520699;29;20580;-96
2023/09/29 04:30:55;;;;;;;12.18;7.70;;;;;;;10.05;100.00;98718.84;2519860;29;20049;-95
2023/09/29 04:32:11;;;;;;;11.35;8.20;;;;;;;9.97;100.00;98721.63;2518673;29;20055;-95
2023/09/29 04:33:27;;;;;;;11.85;7.18;;;;;;;9.89;100.00;98720.91;2520548;29;20021;-96
2023/09/29 04:35:04;;;;;;;9.75;7.45;;;;;;;9.98;100.00;98725.09;2519233;29;20048;-96
2023/09/29 04:37:41;;;;;;;11.45;7.22;;;;;;;9.92;100.00;98720.88;2527409;29;20127;-91
2023/09/29 04:40:02;;;;;;;12.90;7.32;;;;;;;9.92;100.00;98731.34;2503692;29;20034;-96
2023/09/29 04:41:39;;;;;;;13.20;6.82;;;;;;;9.95;100.00;98730.41;2510094;29;20063;-96
2023/09/29 04:43:40;;;;;;;12.80;7.13;;;;;;;9.70;100.00;98731.75;2498970;29;20049;-96
2023/09/29 04:45:18;;;;;;;11.57;7.13;;;;;;;9.57;100.00;98725.94;2511639;29;20103;-91
2023/09/29 04:47:38;;;;;;;9.55;6.97;;;;;;;9.45;100.00;98721.78;2497300;29;20048;-91
2023/09/29 04:50:16;;;;;;;9.82;6.47;;;;;;;9.33;100.00;98722.88;2472436;29;20048;-88
2023/09/29 04:53:14;;;;;;;12.07;6.68;;;;;;;9.22;100.00;98719.59;2476214;30;20051;-90
2023/09/29 04:55:24;;;;;;;12.18;7.00;;;;;;;9.21;100.00;98722.22;2486207;29;20067;-91
2023/09/29 04:57:43;;;;;;;9.73;6.28;;;;;;;9.15;100.00;98717.97;2478444;30;20043;-90
2023/09/29 04:59:51;;;;;;;13.82;7.18;;;;;;;9.14;100.00;98719.72;2478019;30;20090;-94
2023/09/29 05:01:27;;;;;;;11.00;6.47;;;;;;;9.04;100.00;98719.03;2464580;30;20056;-96
2023/09/29 05:03:00;;;;;;;11.18;6.97;;;;;;;9.15;100.00;98717.97;2473944;30;20055;-96
2023/09/29 05:04:35;;;;;;;12.15;8.35;;;;;;;9.26;100.00;98723.03;2466394;30;20139;-96
2023/09/29 05:06:10;;;;;;;16.08;8.27;;;;;;;9.31;100.00;98711.59;2474743;30;20123;-96
2023/09/29 05:07:45;;;;;;;14.00;8.00;;;;;;;9.28;100.00;98718.63;2483891;29;20039;-96
2023/09/29 05:09:22;;;;;;;14.93;8.65;;;;;;;9.31;100.00;98716.81;2467005;30;20049;-96
2023/09/29 05:11:16;;;;;;;14.15;8.80;;;;;;;9.47;100.00;98709.53;2484513;29;20128;-96
2023/09/29 05:13:34;;;;;;;14.25;8.48;;;;;;;9.59;100.00;98718.03;2477252;30;20043;-89
2023/09/29 05:15:15;;;;;;;12.45;8.50;;;;;;;9.63;100.00;98718.84;2493693;29;20138;-93
2023/09/29 05:16:49;;;;;;;14.25;9.07;;;;;;;9.61;100.00;98722.34;2496945;29;20050;-93
2023/09/29 05:18:05;;;;;;;11.95;8.10;;;;;;;9.58;100.00;98719.81;2490708;29;20086;-91
2023/09/29 05:19:21;;;;;;;14.15;8.65;;;;;;;9.65;100.00;98722.28;2489072;29;20091;-92
2023/09/29 05:20:36;;;;;;;13.00;8.05;;;;;;;9.73;100.00;98720.41;2486648;29;20284;-93
2023/09/29 05:21:52;;;;;;;14.50;8.32;;;;;;;9.77;100.00;98723.78;2487893;29;20122;-93
2023/09/29 05:23:08;;;;;;;15.18;9.55;;;;;;;9.83;100.00;98719.28;2484790;29;20070;-94
2023/09/29 05:24:24;;;;;;;16.85;9.02;;;;;;;9.94;100.00;98719.09;2481803;29;20058;-94
2023/09/29 05:25:44;;;;;;;13.52;8.05;;;;;;;10.02;100.00;98722.38;2489403;29;20538;-93
2023/09/29 05:27:00;;;;;;;13.43;8.25;;;;;;;10.01;100.00;98723.28;2505486;29;20060;-92
2023/09/29 05:28:15;;;;;;;12.43;8.50;;;;;;;9.98;100.00;98725.09;2516565;29;20085;-92
2023/09/29 05:29:31;;;;;;;11.93;8.18;;;;;;;9.92;100.00;98720.00;2529750;29;20488;-91
2023/09/29 05:30:53;;;;;;;13.20;8.73;;;;;;;9.91;100.00;98720.91;2534182;29;20055;-93
2023/09/29 05:32:09;;;;;;;12.57;8.10;;;;;;;9.89;100.00;98726.16;2534469;29;20127;-92
2023/09/29 05:33:24;;;;;;;11.45;7.80;;;;;;;9.88;100.00;98719.19;2523239;29;20052;-92
2023/09/29 05:34:40;;;;;;;12.02;7.85;;;;;;;9.88;100.00;98724.44;2517432;29;20242;-92
2023/09/29 05:35:56;;;;;;;11.30;8.30;;;;;;;9.89;100.00;98731.38;2527107;29;20137;-94
2023/09/29 05:37:12;;;;;;;12.23;8.00;;;;;;;10.02;100.00;98732.00;2532634;29;20052;-92
2023/09/29 05:38:27;;;;;;;11.43;8.30;;;;;;;10.03;100.00;98726.72;2521823;29;20108;-92
2023/09/29 05:39:43;;;;;;;10.90;7.50;;;;;;;9.99;100.00;98730.31;2527703;29;20059;-92
2023/09/29 05:40:59;;;;;;;12.35;7.88;;;;;;;9.96;100.00;98738.22;2531866;29;20084;-92
2023/09/29 05:42:15;;;;;;;13.70;8.02;;;;;;;9.94;100.00;98728.69;2533189;29;20044;-91
2023/09/29 05:43:30;;;;;;;13.10;7.57;;;;;;;9.93;100.00;98733.06;2532105;29;20481;-92
2023/09/29 05:44:46;;;;;;;10.45;7.30;;;;;;;9.89;100.00;98731.38;2533487;29;20056;-92
2023/09/29 05:46:02;;;;;;;11.45;7.40;;;;;;;9.92;100.00;98733.09;2534077;29;20143;-91
2023/09/29 05:47:17;;;;;;;12.45;7.53;;;;;;;9.91;100.00;98733.97;2524310;29;20138;-92
2023/09/29 05:48:33;;;;;;;12.18;7.70;;;;;;;9.94;100.00;98741.75;2524316;29;20051;-93
2023/09/29 05:49:48;;;;;;;15.98;8.10;;;;;;;9.94;100.00;98736.53;2533977;29;20068;-93
2023/09/29 05:51:04;;;;;;;11.73;7.38;;;;;;;9.92;100.00;98741.81;2532580;29;20615;-92
2023/09/29 05:52:20;;;;;;;12.63;7.97;;;;;;;9.92;100.00;98740.94;2534849;29;20048;-92
2023/09/29 05:53:35;;;;;;;12.38;7.72;;;;;;;9.91;100.00;98740.06;2531317;29;20044;-93
2023/09/29 05:54:51;;;;;;;10.57;7.70;;;;;;;9.93;100.00;98742.66;2529485;29;20060;-92
2023/09/29 05:56:12;;;;;;;10.88;7.35;;;;;;;9.95;100.00;98741.75;2530897;29;20504;-92
2023/09/29 05:57:28;;;;;;;10.80;7.57;;;;;;;9.97;100.00;98745.19;2532065;29;20184;-92
2023/09/29 05:58:44;;;;;;;11.85;7.90;;;;;;;10.00;100.00;98741.66;2532277;29;20133;-93
2023/09/29 05:59:59;;;;;;;11.27;7.32;;;;;;;10.03;100.00;98744.19;2522118;29;20052;-93
2023/09/29 06:01:16;;;;;;;12.70;7.65;;;;;;;10.06;100.00;98738.00;2527018;29;20040;-92
2023/09/29 06:02:33;;;;;;;13.23;8.43;;;;;;;10.15;100.00;98745.69;2532628;29;20615;-92
2023/09/29 06:03:50;;;;;;;11.07;7.78;;;;;;;10.28;100.00;98744.50;2532214;29;20108;-92
2023/09/29 06:05:06;;;;;;;11.82;7.68;;;;;;;10.35;100.00;98752.25;2533038;29;20064;-92
2023/09/29 06:06:23;;;;;;;13.88;7.65;;;;;;;10.32;100.00;98758.41;2532201;29;20135;-92
2023/09/29 06:07:39;;;;;;;13.25;7.38;;;;;;;10.35;100.00;98752.25;2531780;29;20052;-92
2023/09/29 06:08:55;;;;;;;12.50;8.07;;;;;;;10.35;100.00;98754.88;2533339;29;20044;-93
2023/09/29 06:10:11;;;;;;;13.60;8.25;;;;;;;10.50;100.00;98761.53;2533031;29;20055;-92
2023/09/29 06:11:26;;;;;;;14.40;8.20;;;;;;;10.61;100.00;98764.78;2534238;29;20052;-93
2023/09/29 06:12:42;;;;;;;11.55;8.20;;;;;;;10.59;100.00;98762.19;2531737;29;20413;-91
2023/09/29 06:13:58;;;;;;;11.15;7.60;;;;;;;10.65;100.00;98765.56;2521786;29;20092;-92
2023/09/29 06:15:16;;;;;;;11.93;7.82;;;;;;;10.70;100.00;98761.94;2525710;29;20056;-91
2023/09/29 06:16:32;;;;;;;10.88;7.47;;;;;;;10.71;100.00;98762.78;2534359;29;20749;-92
2023/09/29 06:17:48;;;;;;;10.90;7.65;;;;;;;10.74;100.00;98760.97;2521352;29;20060;-90
2023/09/29 06:19:03;;;;;;;13.43;8.30;;;;;;;10.80;100.00;98759.09;2526262;29;20044;-92
2023/09/29 06:20:19;;;;;;;12.68;7.65;;;;;;;10.80;100.00;98762.59;2523029;29;20041;-93
2023/09/29 06:21:35;;;;;;;12.18;8.27;;;;;;;10.80;100.00;98767.81;2527334;29;20407;-93
2023/09/29 06:22:50;;;;;;;13.77;8.57;;;;;;;10.82;100.00;98760.78;2532177;29;20049;-93
2023/09/29 06:24:06;;;;;;;14.25;8.02;;;;;;;10.89;100.00;98766.75;2534449;29;20382;-93
2023/09/29 06:25:22;;;;;;;12.23;8.32;;;;;;;10.95;100.00;98770.97;2521092;29;20974;-92
2023/09/29 06:26:37;;;;;;;13.65;8.43;;;;;;;11.03;100.00;98769.00;2526907;29;20061;-95
2023/09/29 06:27:53;;;;;;;10.80;7.95;;;;;;;11.03;100.00;98776.88;2532133;29;20064;-93
2023/09/29 06:29:08;;;;;;;12.23;8.82;;;;;;;11.06;100.00;98774.19;2533221;29;20084;-93
2023/09/29 06:30:24;;;;;;;12.23;8.55;;;;;;;11.17;100.00;98773.94;2532697;29;20041;-93
2023/09/29 06:31:40;;;;;;;14.07;8.57;;;;;;;11.26;100.00;98773.69;2533558;29;20056;-92
2023/09/29 06:32:56;;;;;;;15.25;9.60;;;;;;;11.31;100.00;98773.56;2533116;29;20898;-93
2023/09/29 06:34:11;;;;;;;13.32;9.02;;;;;;;11.45;100.00;98775.84;2533423;29;20059;-92
2023/09/29 06:35:27;;;;;;;12.93;8.77;;;;;;;11.50;100.00;98771.31;2523006;29;20101;-93
2023/09/29 06:36:43;;;;;;;13.73;8.68;;;;;;;11.51;100.00;98772.19;2516887;29;20057;-93